Time;durP1;ratioP1;P1;durP2;ratioP2;P2;SDS_P1;SDS_P2;PMS_P1;PMS_P2;Temp;Humidity;BMP_temperature;BMP_pressure;BME280_temperature;BME280_humidity;BME280_pressure;Samples;Min_cycle;Max_cycle;Signal;HPM_P1;HPM_P2
2022/09/22 00:01:02;;;;;;;;;8.00;8.00;;;;;14.95;50.98;101630.94;5092668;27;45551;-59
2022/09/22 00:03:32;;;;;;;;;9.33;6.00;;;;;14.94;51.27;101635.41;5088778;27;47267;-58
2022/09/22 00:06:09;;;;;;;;;10.33;10.00;;;;;14.83;51.68;101620.91;5092739;27;45610;-58
2022/09/22 00:08:38;;;;;;;;;9.00;7.33;;;;;14.84;51.87;101628.00;5089670;27;45404;-58
2022/09/22 00:11:15;;;;;;;;;7.33;7.33;;;;;14.82;51.46;101627.22;5093153;27;45461;-56
2022/09/22 00:13:43;;;;;;;;;6.33;6.00;;;;;14.80;51.61;101631.81;5082767;27;45441;-57
2022/09/22 00:16:10;;;;;;;;;10.67;9.00;;;;;14.81;51.71;101628.19;5089370;27;45637;-63
2022/09/22 00:18:36;;;;;;;;;10.00;7.33;;;;;14.74;51.98;101623.19;5094348;27;46297;-57
2022/09/22 00:21:11;;;;;;;;;11.67;7.67;;;;;14.64;52.05;101623.78;5094566;27;45495;-56
2022/09/22 00:23:37;;;;;;;;;8.67;6.67;;;;;14.61;52.56;101634.69;5088630;27;45681;-55
2022/09/22 00:26:05;;;;;;;;;9.00;6.00;;;;;14.54;52.02;101625.25;5099222;27;45368;-56
2022/09/22 00:28:31;;;;;;;;;9.00;9.00;;;;;14.46;52.44;101631.06;5093954;27;47015;-58
2022/09/22 00:30:57;;;;;;;;;11.00;8.33;;;;;14.44;53.07;101632.94;5093182;27;45515;-59
2022/09/22 00:33:22;;;;;;;;;3.00;3.00;;;;;14.34;53.19;101627.22;5094478;27;45289;-57
2022/09/22 00:36:07;;;;;;;;;11.00;7.33;;;;;14.31;52.93;101629.16;5093021;27;45480;-59
2022/09/22 00:38:33;;;;;;;;;6.33;6.33;;;;;14.26;53.59;101631.25;5092181;27;45515;-58
2022/09/22 00:41:00;;;;;;;;;11.67;9.67;;;;;14.15;53.46;101622.00;5091438;27;45406;-58
2022/09/22 00:43:28;;;;;;;;;8.67;8.67;;;;;14.17;53.71;101628.13;5086732;27;45510;-60
2022/09/22 00:46:02;;;;;;;;;7.67;7.67;;;;;14.17;53.31;101637.97;5093366;27;45506;-58
2022/09/22 00:48:32;;;;;;;;;8.00;8.00;;;;;14.09;53.44;101625.00;5087148;27;45597;-56
2022/09/22 00:51:00;;;;;;;;;8.67;5.00;;;;;13.96;53.43;101602.56;5087038;27;45468;-56
2022/09/22 00:53:27;;;;;;;;;5.00;5.00;;;;;14.13;53.52;101625.69;5087071;27;45418;-57
2022/09/22 00:55:56;;;;;;;;;8.67;7.00;;;;;14.11;52.90;101617.75;5081447;27;45334;-61
2022/09/22 00:58:29;;;;;;;;;8.00;8.00;;;;;14.17;53.32;101627.25;5090063;27;45612;-59
2022/09/22 01:00:55;;;;;;;;;12.00;7.67;;;;;14.22;52.88;101629.69;5080269;27;45363;-58
2022/09/22 01:03:22;;;;;;;;;7.67;7.67;;;;;14.20;53.06;101626.25;5083865;27;45234;-57
2022/09/22 01:05:53;;;;;;;;;8.00;8.00;;;;;14.13;53.40;101623.88;5094222;27;45317;-56
2022/09/22 01:08:21;;;;;;;;;8.00;8.00;;;;;14.06;53.49;101614.50;5098050;27;45352;-57
2022/09/22 01:10:48;;;;;;;;;5.00;5.00;;;;;14.02;53.68;101622.75;5091593;27;45576;-59
2022/09/22 01:13:28;;;;;;;;;5.67;4.67;;;;;14.03;53.89;101619.97;5094359;27;45334;-59
2022/09/22 01:16:02;;;;;;;;;5.33;5.33;;;;;14.02;53.70;101617.38;5097350;27;45280;-58
2022/09/22 01:18:48;;;;;;;;;9.00;7.67;;;;;13.96;53.86;101626.63;5091362;27;46242;-58
2022/09/22 01:21:20;;;;;;;;;7.33;7.33;;;;;13.95;53.92;101610.66;5085518;27;45335;-60
2022/09/22 01:24:01;;;;;;;;;6.33;5.00;;;;;13.89;53.89;101614.50;5094697;27;45542;-58
2022/09/22 01:27:03;;;;;;;;;10.67;8.00;;;;;13.91;54.00;101614.44;5101063;27;45372;-57
2022/09/22 01:30:06;;;;;;;;;7.67;7.33;;;;;13.91;53.99;101609.94;5098937;27;45490;-62
2022/09/22 01:32:43;;;;;;;;;4.00;4.00;;;;;13.91;53.75;101609.06;5091048;27;45522;-59
2022/09/22 01:35:20;;;;;;;;;8.00;7.00;;;;;13.88;53.83;101607.44;5089279;27;47279;-58
2022/09/22 01:38:02;;;;;;;;;8.00;6.00;;;;;13.83;53.86;101602.34;5104789;27;45472;-60
2022/09/22 01:40:51;;;;;;;;;8.00;6.33;;;;;13.85;54.15;101604.94;5094362;27;45640;-58
2022/09/22 01:43:22;;;;;;;;;9.00;6.33;;;;;13.85;54.25;101610.28;5086185;27;45294;-60
2022/09/22 01:45:50;;;;;;;;;5.67;5.67;;;;;13.86;53.79;101606.66;5086485;27;45522;-64
2022/09/22 01:48:21;;;;;;;;;4.67;4.67;;;;;13.83;53.86;101617.53;5086812;27;45557;-58
2022/09/22 01:50:56;;;;;;;;;7.00;5.00;;;;;13.77;54.29;101607.16;5091812;27;45546;-59
2022/09/22 01:53:27;;;;;;;;;9.33;8.00;;;;;13.78;54.50;101612.41;5086952;27;45291;-60
2022/09/22 01:55:58;;;;;;;;;5.00;5.00;;;;;13.81;53.94;101614.94;5082718;27;45421;-59
2022/09/22 01:58:41;;;;;;;;;6.75;6.75;;;;;13.73;54.12;101611.81;5088022;27;45477;-60
2022/09/22 02:01:27;;;;;;;;;7.00;5.00;;;;;13.74;54.31;101612.66;5087093;27;45389;-58
2022/09/22 02:04:08;;;;;;;;;6.00;4.67;;;;;13.70;54.42;101613.78;5089114;27;45579;-57
2022/09/22 02:06:46;;;;;;;;;8.50;7.00;;;;;13.66;54.52;101605.03;5092211;27;45421;-59
2022/09/22 02:09:17;;;;;;;;;7.00;4.00;;;;;13.64;54.75;101614.09;5083608;27;45349;-59
2022/09/22 02:11:42;;;;;;;;;5.33;4.00;;;;;13.66;54.31;101614.88;5093119;27;45206;-61
2022/09/22 02:14:09;;;;;;;;;7.00;7.00;;;;;13.66;54.65;101607.72;5088646;27;45396;-59
2022/09/22 02:16:35;;;;;;;;;6.33;6.33;;;;;13.67;54.40;101608.56;5092260;27;46916;-54
2022/09/22 02:19:35;;;;;;;;;5.67;5.67;;;;;13.58;54.30;101594.75;5094441;27;45457;-59
2022/09/22 02:22:00;;;;;;;;;8.50;7.50;;;;;13.62;54.57;101589.25;5086717;27;46182;-60
2022/09/22 02:24:29;;;;;;;;;10.00;5.50;;;;;13.65;54.74;101595.28;5092799;27;45463;-60
2022/09/22 02:26:57;;;;;;;;;4.00;4.00;;;;;13.63;54.42;101599.00;5096354;27;45622;-60
2022/09/22 02:29:26;;;;;;;;;7.00;4.33;;;;;13.63;54.67;101596.31;5084025;27;45471;-58
2022/09/22 02:31:53;;;;;;;;;7.00;4.00;;;;;13.58;54.52;101580.53;5093254;27;46198;-58
2022/09/22 02:34:18;;;;;;;;;7.33;4.33;;;;;13.58;54.47;101586.75;5093631;27;45235;-58
2022/09/22 02:37:10;;;;;;;;;4.67;4.67;;;;;13.61;54.35;101584.84;5087784;27;45580;-62
2022/09/22 02:39:53;;;;;;;;;4.67;4.67;;;;;13.51;54.80;101577.31;5080748;27;45235;-61
2022/09/22 02:42:38;;;;;;;;;9.00;7.00;;;;;13.54;54.65;101594.97;5088127;27;46323;-59
2022/09/22 02:45:20;;;;;;;;;7.00;4.67;;;;;13.51;54.35;101587.13;5086556;27;46842;-60
2022/09/22 02:47:57;;;;;;;;;7.00;5.00;;;;;13.50;55.10;101586.28;5085474;27;45494;-65
2022/09/22 02:50:25;;;;;;;;;6.33;6.33;;;;;13.51;54.86;101579.13;5081713;27;45658;-59
2022/09/22 02:52:55;;;;;;;;;7.00;7.00;;;;;13.52;54.78;101588.84;5084680;27;46165;-59
2022/09/22 02:55:20;;;;;;;;;7.00;5.00;;;;;13.44;55.14;101567.03;5091027;27;45589;-56
2022/09/22 02:57:45;;;;;;;;;7.33;5.33;;;;;13.48;54.75;101580.16;5094614;27;45449;-57
2022/09/22 03:00:11;;;;;;;;;9.50;9.50;;;;;13.49;54.95;101589.91;5098823;27;45612;-59
2022/09/22 03:02:37;;;;;;;;;8.00;7.00;;;;;13.43;54.73;101582.22;5089327;27;45419;-58
2022/09/22 03:05:02;;;;;;;;;7.00;7.00;;;;;13.42;54.80;101580.50;5085947;27;46447;-59
2022/09/22 03:07:28;;;;;;;;;7.00;7.00;;;;;13.37;55.72;101581.66;5091364;27;45341;-58
2022/09/22 03:09:53;;;;;;;;;8.00;6.00;;;;;13.34;55.44;101584.50;5089650;27;45460;-58
2022/09/22 03:12:19;;;;;;;;;9.25;8.00;;;;;13.32;55.50;101579.22;5088502;27;46803;-58
2022/09/22 03:14:44;;;;;;;;;8.75;7.00;;;;;13.29;55.54;101576.72;5080391;27;45232;-58
2022/09/22 03:17:10;;;;;;;;;9.00;7.25;;;;;13.20;56.19;101566.50;5092454;27;45442;-59
2022/09/22 03:19:35;;;;;;;;;8.25;8.25;;;;;13.16;55.97;101572.91;5090955;27;45587;-59
2022/09/22 03:22:00;;;;;;;;;9.00;9.00;;;;;13.13;55.67;101573.91;5095041;27;45423;-58
2022/09/22 03:24:26;;;;;;;;;5.50;5.50;;;;;13.12;56.11;101560.66;5091966;27;45475;-62
2022/09/22 03:26:51;;;;;;;;;8.25;7.75;;;;;13.11;56.18;101569.59;5090573;27;45624;-59
2022/09/22 03:29:16;;;;;;;;;9.50;8.00;;;;;13.13;55.88;101567.72;5094012;27;45491;-58
2022/09/22 03:31:42;;;;;;;;;7.00;5.25;;;;;13.12;56.14;101560.66;5078084;27;45434;-60
2022/09/22 03:34:07;;;;;;;;;9.75;9.75;;;;;13.10;56.05;101555.38;5084335;27;45399;-57
2022/09/22 03:36:33;;;;;;;;;5.75;5.75;;;;;13.12;56.27;101558.84;5090148;27;45238;-58
2022/09/22 03:38:58;;;;;;;;;7.50;6.25;;;;;13.10;56.02;101565.19;5096065;27;45578;-58
2022/09/22 03:41:24;;;;;;;;;5.25;5.25;;;;;13.09;56.19;101558.13;5098933;27;46626;-59
2022/09/22 03:43:49;;;;;;;;;9.50;7.75;;;;;13.09;55.65;101561.66;5090785;27;45568;-58
2022/09/22 03:46:15;;;;;;;;;3.50;3.50;;;;;13.03;56.34;101566.47;5089142;27;45556;-58
2022/09/22 03:48:40;;;;;;;;;7.25;7.25;;;;;12.95;56.38;101565.03;5096892;27;45456;-61
2022/09/22 03:51:06;;;;;;;;;9.50;8.00;;;;;12.89;56.88;101568.03;5090508;27;45478;-58
2022/09/22 03:53:31;;;;;;;;;6.00;6.00;;;;;12.85;56.90;101568.25;5085540;27;45488;-59
2022/09/22 03:56:05;;;;;;;;;14.75;8.00;;;;;12.83;56.77;101560.31;5090727;27;45563;-57
2022/09/22 03:58:30;;;;;;;;;8.75;7.75;;;;;12.82;57.89;101565.75;5087490;27;45478;-58
2022/09/22 04:00:56;;;;;;;;;9.00;9.00;;;;;12.76;57.43;101556.25;5095194;27;45433;-59
2022/09/22 04:03:23;;;;;;;;;10.00;10.00;;;;;12.74;58.17;101558.09;5091707;27;45397;-61
2022/09/22 04:05:49;;;;;;;;;10.25;10.25;;;;;12.72;57.74;101556.44;5082258;27;45507;-60
2022/09/22 04:08:15;;;;;;;;;10.00;8.33;;;;;12.63;57.41;101542.66;5089455;27;45257;-59
2022/09/22 04:10:40;;;;;;;;;7.00;7.00;;;;;12.71;57.20;101550.25;5090058;27;46276;-59
2022/09/22 04:13:05;;;;;;;;;10.00;8.00;;;;;12.65;57.29;101538.09;5091907;27;45390;-56
2022/09/22 04:15:31;;;;;;;;;10.75;10.00;;;;;12.75;57.13;101549.16;5093480;27;45253;-56
2022/09/22 04:17:56;;;;;;;;;12.50;8.50;;;;;12.72;57.56;101541.31;5093647;27;45358;-58
2022/09/22 04:20:22;;;;;;;;;7.50;7.50;;;;;12.64;57.37;101540.84;5093776;27;46324;-58
2022/09/22 04:22:47;;;;;;;;;10.00;9.00;;;;;12.71;57.60;101552.91;5082855;27;45444;-58
2022/09/22 04:25:13;;;;;;;;;9.75;9.75;;;;;12.70;57.49;101553.88;5088042;27;45410;-60
2022/09/22 04:27:38;;;;;;;;;12.25;10.00;;;;;12.68;57.81;101545.94;5090078;27;45415;-60
2022/09/22 04:30:04;;;;;;;;;10.25;10.25;;;;;12.68;57.27;101545.94;5082619;27;46040;-60
2022/09/22 04:32:30;;;;;;;;;7.75;7.75;;;;;12.65;57.24;101529.22;5075369;27;45723;-58
2022/09/22 04:34:55;;;;;;;;;12.50;11.25;;;;;12.63;57.86;101531.06;5082017;27;45388;-58
2022/09/22 04:37:20;;;;;;;;;9.75;8.25;;;;;12.65;57.95;101537.22;5091243;27;45363;-58
2022/09/22 04:39:46;;;;;;;;;9.50;9.50;;;;;12.63;57.46;101536.41;5089351;27;45438;-59
2022/09/22 04:42:11;;;;;;;;;8.00;8.00;;;;;12.62;57.60;101529.34;5083130;27;45480;-61
2022/09/22 04:44:37;;;;;;;;;13.75;9.75;;;;;12.63;57.54;101536.41;5083626;27;45267;-58
2022/09/22 04:47:03;;;;;;;;;10.00;8.00;;;;;12.61;57.89;101532.97;5093562;27;45417;-58
2022/09/22 04:49:29;;;;;;;;;8.75;8.75;;;;;12.63;57.93;101541.75;5087797;27;45450;-56
2022/09/22 04:51:55;;;;;;;;;10.50;10.25;;;;;12.56;58.31;101535.00;5088166;27;45622;-58
2022/09/22 04:54:20;;;;;;;;;13.00;10.75;;;;;12.60;57.85;101539.25;5079267;27;46070;-57
2022/09/22 04:56:45;;;;;;;;;14.25;10.00;;;;;12.58;57.99;101538.44;5089634;27;45213;-59
2022/09/22 04:59:11;;;;;;;;;13.00;11.75;;;;;12.54;57.98;101536.88;5083599;27;45458;-60
2022/09/22 05:01:37;;;;;;;;;8.75;8.75;;;;;12.55;58.48;101543.94;5084121;27;45546;-58
2022/09/22 05:04:02;;;;;;;;;9.75;9.75;;;;;12.55;57.76;101547.47;5094746;27;45340;-60
2022/09/22 05:06:28;;;;;;;;;14.75;11.75;;;;;12.55;58.24;101546.63;5088074;27;45383;-59
2022/09/22 05:08:54;;;;;;;;;17.25;13.00;;;;;12.54;57.93;101547.56;5088310;27;45716;-59
2022/09/22 05:11:22;;;;;;;;;9.00;9.00;;;;;12.55;57.75;101544.81;5114306;27;45608;-56
2022/09/22 05:13:49;;;;;;;;;10.25;9.00;;;;;12.48;58.23;101532.69;5087754;27;46045;-57
2022/09/22 05:16:15;;;;;;;;;12.50;12.50;;;;;12.53;57.96;101548.50;5086257;27;45563;-58
2022/09/22 05:18:41;;;;;;;;;11.25;11.25;;;;;12.55;57.90;101546.63;5092476;27;45512;-56
2022/09/22 05:21:06;;;;;;;;;18.50;15.00;;;;;12.49;58.40;101544.22;5092664;27;45547;-57
2022/09/22 05:23:32;;;;;;;;;14.75;14.75;;;;;12.50;58.51;101556.63;5095249;27;45530;-57
2022/09/22 05:25:57;;;;;;;;;14.00;14.00;;;;;12.42;58.73;101557.03;5084019;27;45657;-58
2022/09/22 05:28:23;;;;;;;;;13.00;13.00;;;;;12.31;58.82;101538.00;5085180;27;45387;-57
2022/09/22 05:30:52;;;;;;;;;12.00;12.00;;;;;12.38;58.78;101555.44;5089655;27;45376;-59
2022/09/22 05:33:18;;;;;;;;;13.75;11.00;;;;;12.34;58.87;101557.38;5088251;27;45452;-57
2022/09/22 05:35:44;;;;;;;;;14.75;13.00;;;;;12.35;58.73;101558.25;5101127;27;45480;-57
2022/09/22 05:38:09;;;;;;;;;11.25;11.00;;;;;12.26;59.08;101554.22;5094580;27;45587;-57
2022/09/22 05:40:35;;;;;;;;;10.00;10.00;;;;;12.34;58.71;101568.03;5098327;27;45447;-58
2022/09/22 05:43:00;;;;;;;;;13.75;11.50;;;;;12.34;58.56;101570.72;5099582;27;45460;-56
2022/09/22 05:45:28;;;;;;;;;15.50;12.25;;;;;12.35;58.48;101569.78;5092865;27;45263;-58
2022/09/22 05:47:54;;;;;;;;;13.50;12.00;;;;;12.36;58.78;101574.16;5094992;27;46164;-59
2022/09/22 05:50:22;;;;;;;;;13.00;13.00;;;;;12.37;58.53;101572.41;5109626;27;45431;-64
2022/09/22 05:52:48;;;;;;;;;12.75;12.25;;;;;12.36;58.46;101575.97;5085104;27;45950;-59
2022/09/22 05:55:13;;;;;;;;;13.75;13.75;;;;;12.37;58.48;101570.59;5118987;27;45574;-61
2022/09/22 05:57:39;;;;;;;;;9.75;9.75;;;;;12.35;58.52;101577.78;5099960;27;47350;-61
2022/09/22 06:00:06;;;;;;;;;14.50;11.75;;;;;12.35;57.91;101575.09;5100801;27;45353;-61
2022/09/22 06:02:32;;;;;;;;;12.50;12.50;;;;;12.34;58.56;101576.03;5097255;27;45354;-61
2022/09/22 06:04:57;;;;;;;;;12.00;9.75;;;;;12.32;58.59;101575.25;5103222;27;45607;-64
2022/09/22 06:07:23;;;;;;;;;12.75;11.00;;;;;12.35;58.28;101584.91;5109886;27;46097;-60
2022/09/22 06:09:49;;;;;;;;;15.00;14.00;;;;;12.33;58.45;101581.47;5083770;27;45216;-62
2022/09/22 06:12:16;;;;;;;;;14.75;12.00;;;;;12.29;58.72;101577.22;5108487;27;45580;-60
2022/09/22 06:14:41;;;;;;;;;14.25;11.75;;;;;12.26;59.14;101570.22;5096441;27;45345;-58
2022/09/22 06:17:10;;;;;;;;;14.75;13.75;;;;;12.27;58.70;101571.97;5083906;27;46042;-55
2022/09/22 06:19:36;;;;;;;;;15.00;13.50;;;;;12.19;58.97;101565.25;5092745;27;45477;-57
2022/09/22 06:22:01;;;;;;;;;13.00;13.00;;;;;12.24;58.92;101565.88;5085016;27;45602;-60
2022/09/22 06:24:27;;;;;;;;;14.25;10.75;;;;;12.25;59.16;101563.19;5105555;27;45652;-58
2022/09/22 06:26:52;;;;;;;;;14.50;13.00;;;;;12.27;58.93;101563.09;5086073;27;45986;-58
2022/09/22 06:29:18;;;;;;;;;12.75;12.75;;;;;12.23;58.84;101554.34;5093552;27;45371;-59
2022/09/22 06:31:44;;;;;;;;;15.25;13.50;;;;;12.32;58.47;101558.41;5094170;27;45480;-56
2022/09/22 06:34:10;;;;;;;;;12.50;11.75;;;;;12.33;58.35;101558.31;5098246;27;46666;-55
2022/09/22 06:36:36;;;;;;;;;13.25;12.25;;;;;12.37;57.91;101567.06;5087999;27;46165;-59
2022/09/22 06:39:02;;;;;;;;;15.75;13.50;;;;;12.20;58.21;101537.63;5084320;27;45517;-55
2022/09/22 06:41:30;;;;;;;;;15.00;13.50;;;;;12.35;58.09;101555.56;5081376;27;45361;-58
2022/09/22 06:43:56;;;;;;;;;14.25;12.25;;;;;12.40;58.03;101557.09;5092590;27;45321;-58
2022/09/22 06:46:26;;;;;;;;;15.75;15.75;;;;;12.45;58.09;101572.00;5089265;27;46171;-58
2022/09/22 06:48:56;;;;;;;;;15.50;13.00;;;;;12.43;57.68;101556.09;5088404;27;45477;-55
2022/09/22 06:51:26;;;;;;;;;15.00;14.00;;;;;12.51;57.41;101567.25;5094504;27;46045;-57
2022/09/22 06:53:55;;;;;;;;;11.25;11.25;;;;;12.56;57.24;101562.53;5079910;27;45562;-57
2022/09/22 06:56:25;;;;;;;;;20.00;16.75;;;;;12.61;57.17;101560.50;5089571;27;45372;-55
2022/09/22 06:58:57;;;;;;;;;15.25;13.75;;;;;12.65;57.22;101563.91;5087478;27;45436;-56
2022/09/22 07:01:23;;;;;;;;;16.25;16.25;;;;;12.69;57.43;101562.81;5094454;27;45395;-55
2022/09/22 07:03:49;;;;;;;;;21.50;19.00;;;;;12.70;57.56;101560.06;5086284;27;45251;-57
2022/09/22 07:06:17;;;;;;;;;34.50;31.00;;;;;12.69;57.10;101552.13;5114520;27;45983;-56
2022/09/22 07:08:44;;;;;;;;;15.50;15.50;;;;;12.74;56.95;101560.75;5088959;27;45607;-58
2022/09/22 07:11:12;;;;;;;;;16.75;15.25;;;;;12.84;56.86;101567.38;5079846;27;45458;-56
2022/09/22 07:13:41;;;;;;;;;16.00;14.25;;;;;12.86;56.79;101564.63;5081744;27;45564;-58
2022/09/22 07:16:09;;;;;;;;;16.75;14.00;;;;;12.89;57.00;101570.72;5095536;27;45590;-58
2022/09/22 07:18:39;;;;;;;;;16.00;15.00;;;;;12.92;56.91;101573.22;5097202;27;45419;-61
2022/09/22 07:21:11;;;;;;;;;20.75;18.00;;;;;12.98;57.01;101575.56;5083914;27;45224;-60
2022/09/22 07:23:37;;;;;;;;;22.50;19.25;;;;;12.96;56.61;101564.09;5076704;27;45728;-60
2022/09/22 07:26:04;;;;;;;;;16.75;16.75;;;;;13.05;56.79;101575.28;5086556;27;45558;-59
2022/09/22 07:28:31;;;;;;;;;19.50;19.50;;;;;13.06;56.28;101566.31;5081589;27;45839;-58
2022/09/22 07:31:07;;;;;;;;;19.75;17.00;;;;;13.12;56.72;101568.66;5091756;27;45362;-60
2022/09/22 07:33:34;;;;;;;;;13.00;13.00;;;;;13.14;56.26;101564.09;5083212;27;45544;-59
2022/09/22 07:36:07;;;;;;;;;20.00;20.00;;;;;13.20;56.27;101566.50;5082206;27;46403;-55
2022/09/22 07:38:35;;;;;;;;;18.50;18.50;;;;;13.25;55.93;101567.13;5084429;27;45403;-58
2022/09/22 07:41:07;;;;;;;;;24.25;20.75;;;;;13.21;56.25;101553.06;5091930;27;45245;-57
2022/09/22 07:43:33;;;;;;;;;20.75;19.50;;;;;13.27;56.16;101562.56;5099009;27;45491;-60
2022/09/22 07:46:00;;;;;;;;;26.75;24.25;;;;;13.32;56.03;101563.19;5096795;27;45501;-59
2022/09/22 07:48:41;;;;;;;;;22.25;21.00;;;;;13.34;55.59;101555.97;5102747;27;45327;-57
2022/09/22 07:51:27;;;;;;;;;21.00;17.50;;;;;13.46;55.44;101570.50;5083037;27;45416;-54
2022/09/22 07:54:06;;;;;;;;;22.75;17.75;;;;;13.46;55.32;101566.00;5107762;27;45382;-55
2022/09/22 07:56:33;;;;;;;;;24.25;21.00;;;;;13.54;55.80;101562.91;5078804;27;45429;-55
2022/09/22 07:59:03;;;;;;;;;23.25;17.50;;;;;13.57;55.24;101560.09;5075183;27;45303;-60
2022/09/22 08:01:42;;;;;;;;;22.00;20.75;;;;;13.55;54.63;101549.50;5076315;27;45405;-61
2022/09/22 08:04:21;;;;;;;;;27.00;22.75;;;;;13.58;54.52;101535.09;5076581;27;45351;-59
2022/09/22 08:06:50;;;;;;;;;20.75;19.75;;;;;13.62;54.38;101533.13;5077595;27;45471;-59
2022/09/22 08:09:17;;;;;;;;;26.50;20.00;;;;;13.77;54.84;101559.88;5078350;27;45518;-59
2022/09/22 08:11:47;;;;;;;;;20.75;19.50;;;;;13.84;54.52;101557.75;5087207;27;45445;-58
2022/09/22 08:14:19;;;;;;;;;25.00;19.50;;;;;13.86;54.26;101555.84;5094128;27;45440;-59
2022/09/22 08:16:45;;;;;;;;;18.50;16.75;;;;;13.93;54.29;101559.03;5090015;27;45573;-62
2022/09/22 08:19:12;;;;;;;;;18.75;17.00;;;;;13.96;53.83;101557.09;5090525;27;45753;-66
2022/09/22 08:21:40;;;;;;;;;22.00;22.00;;;;;13.97;53.58;101540.09;5088824;27;45453;-58
2022/09/22 08:24:08;;;;;;;;;19.33;19.33;;;;;14.10;53.42;101546.50;5120508;27;45505;-56
2022/09/22 08:26:35;;;;;;;;;18.50;16.75;;;;;14.21;53.46;101547.72;5077739;27;45952;-60
2022/09/22 08:29:02;;;;;;;;;19.75;18.00;;;;;14.27;53.08;101550.03;5086468;27;45352;-54
2022/09/22 08:31:28;;;;;;;;;19.67;17.67;;;;;14.26;52.95;101546.50;5083156;27;45472;-54
2022/09/22 08:33:54;;;;;;;;;17.50;16.50;;;;;14.35;52.76;101545.97;5096768;27;45538;-55
2022/09/22 08:36:21;;;;;;;;;19.75;19.75;;;;;14.42;52.37;101555.38;5077194;27;45628;-55
2022/09/22 08:38:48;;;;;;;;;20.00;20.00;;;;;14.47;52.52;101549.81;5091344;27;45282;-55
2022/09/22 08:41:41;;;;;;;;;16.67;15.00;;;;;14.70;51.76;101552.00;5079287;27;45265;-57
2022/09/22 08:44:09;;;;;;;;;20.00;20.00;;;;;14.88;51.68;101546.53;5076251;27;45353;-59
2022/09/22 08:46:46;;;;;;;;;17.67;15.67;;;;;15.08;51.49;101546.22;5075607;27;46248;-58
2022/09/22 08:52:37;;;;;;;;;18.00;17.67;;;;;15.77;50.30;101540.22;5101257;27;45332;-60
2022/09/22 08:55:16;;;;;;;;;22.33;19.00;;;;;16.06;49.26;101537.50;5095534;27;45667;-57
2022/09/22 08:57:43;;;;;;;;;19.33;15.67;;;;;16.34;48.85;101545.50;5093336;27;47705;-57
2022/09/22 09:00:19;;;;;;;;;18.33;18.33;;;;;16.63;48.61;101553.47;5091828;27;45266;-59
2022/09/22 09:03:03;;;;;;;;;17.33;17.33;;;;;16.95;47.47;101549.53;5096058;27;45416;-57
2022/09/22 09:05:45;;;;;;;;;17.00;16.00;;;;;17.33;46.26;101540.69;5082166;27;45748;-52
2022/09/22 09:08:33;;;;;;;;;31.25;29.00;;;;;17.69;46.40;101535.41;5077476;27;45427;-58
2022/09/22 09:11:41;;;;;;;;;32.00;28.67;;;;;18.02;45.34;101544.75;5091680;27;45497;-60
2022/09/22 09:14:12;;;;;;;;;18.00;16.00;;;;;18.35;44.68;101535.19;5095412;27;45484;-55
2022/09/22 09:17:13;;;;;;;;;16.33;14.33;;;;;18.57;42.93;101535.31;5079814;27;45404;-60
2022/09/22 09:19:54;;;;;;;;;16.67;15.33;;;;;18.77;43.55;101531.19;5072378;27;45481;-58
2022/09/22 09:22:26;;;;;;;;;19.00;17.00;;;;;18.90;42.57;101525.72;5077295;27;46707;-59
2022/09/22 09:25:07;;;;;;;;;16.00;16.00;;;;;18.79;41.30;101519.28;5081311;27;45254;-62
2022/09/22 09:27:41;;;;;;;;;20.00;16.67;;;;;18.97;41.50;101532.34;5077537;28;45405;-58
2022/09/22 09:30:18;;;;;;;;;14.67;14.67;;;;;19.03;41.50;101531.88;5089124;27;46533;-59
2022/09/22 09:33:00;;;;;;;;;12.33;12.00;;;;;19.14;42.34;101522.00;5079127;27;45534;-56
2022/09/22 09:35:51;;;;;;;;;11.67;11.67;;;;;19.35;41.47;101532.94;5093335;27;45548;-54
2022/09/22 09:38:25;;;;;;;;;13.67;12.00;;;;;19.54;41.37;101520.72;5093751;27;45206;-57
2022/09/22 09:40:57;;;;;;;;;13.33;13.33;;;;;19.68;40.63;101523.22;5096254;27;46181;-63
2022/09/22 09:43:26;;;;;;;;;10.67;10.67;;;;;19.75;40.57;101519.03;5097617;27;45501;-55
2022/09/22 09:45:51;;;;;;;;;13.33;10.00;;;;;19.77;40.34;101519.75;5084265;27;45468;-56
2022/09/22 09:48:33;;;;;;;;;13.00;10.00;;;;;19.78;40.22;101512.50;5088518;27;45601;-57
2022/09/22 09:51:04;;;;;;;;;10.00;10.00;;;;;19.73;40.02;101515.59;5088669;27;45774;-58
2022/09/22 09:53:36;;;;;;;;;9.00;8.00;;;;;19.64;40.08;101511.78;5092263;27;45402;-57
2022/09/22 09:56:02;;;;;;;;;13.00;13.00;;;;;19.61;40.35;101516.56;5078610;27;45465;-56
2022/09/22 10:01:13;;;;;;;;;9.00;6.00;;;;;19.39;40.17;101502.03;5081925;27;45942;-57
2022/09/22 10:03:46;;;;;;;;;12.67;7.67;;;;;19.40;39.09;101502.91;5078639;27;45443;-56
2022/09/22 10:06:13;;;;;;;;;11.00;9.00;;;;;19.37;39.42;101497.75;5085556;27;45444;-58
2022/09/22 10:08:48;;;;;;;;;7.33;7.33;;;;;19.33;39.77;101496.28;5079638;27;45628;-55
2022/09/22 10:11:14;;;;;;;;;10.67;10.00;;;;;19.35;40.09;101497.88;5084775;27;46000;-58
2022/09/22 10:13:41;;;;;;;;;3.00;3.00;;;;;19.34;38.65;101492.59;5095382;27;45420;-58
2022/09/22 10:16:18;;;;;;;;;7.00;7.00;;;;;19.36;39.09;101490.63;5097781;27;45374;-58
2022/09/22 10:18:44;;;;;;;;;11.67;10.00;;;;;19.30;38.77;101480.34;5096317;27;45424;-58
2022/09/22 10:21:21;;;;;;;;;6.67;6.67;;;;;19.39;37.87;101491.25;5088979;27;46307;-57
2022/09/22 10:23:52;;;;;;;;;9.00;7.67;;;;;19.41;38.37;101483.91;5088942;27;45444;-58
2022/09/22 10:26:28;;;;;;;;;10.67;8.00;;;;;19.43;38.93;101481.94;5077206;27;45482;-56
2022/09/22 10:29:12;;;;;;;;;8.67;6.67;;;;;19.52;38.23;101474.09;5086834;27;45560;-57
2022/09/22 10:31:40;;;;;;;;;9.33;8.00;;;;;19.55;38.17;101473.91;5094587;27;45511;-56
2022/09/22 10:34:27;;;;;;;;;7.00;6.00;;;;;19.58;38.28;101476.34;5085840;27;45404;-59
2022/09/22 10:36:53;;;;;;;;;7.00;6.00;;;;;19.58;37.30;101469.09;5089973;27;45343;-57
2022/09/22 10:39:21;;;;;;;;;9.00;6.33;;;;;19.60;36.82;101466.28;5078486;27;45607;-59
2022/09/22 10:41:50;;;;;;;;;8.33;7.00;;;;;19.65;36.60;101469.47;5088171;27;45507;-61
2022/09/22 10:44:19;;;;;;;;;7.33;7.33;;;;;19.71;36.29;101464.44;5092058;27;45451;-60
2022/09/22 10:47:30;;;;;;;;;9.67;7.33;;;;;19.83;36.26;101462.59;5077897;27;45368;-60
2022/09/22 10:50:33;;;;;;;;;9.67;8.67;;;;;19.97;36.45;101453.38;5079894;27;45431;-58
2022/09/22 10:53:33;;;;;;;;;18.00;15.33;;;;;20.10;36.79;101453.22;5092994;27;45448;-61
2022/09/22 10:56:07;;;;;;;;;14.00;11.33;;;;;20.17;36.40;101446.31;5092937;27;45402;-57
2022/09/22 10:59:01;;;;;;;;;9.67;9.67;;;;;20.21;36.00;101439.69;5086522;27;45336;-60
2022/09/22 11:01:32;;;;;;;;;14.00;12.33;;;;;20.32;35.72;101445.91;5077342;27;45582;-62
2022/09/22 11:04:00;;;;;;;;;10.33;7.67;;;;;20.42;35.20;101443.31;5076014;27;46152;-61
2022/09/22 11:13:01;;;;;;;;;9.00;4.33;;;;;20.67;32.36;101433.13;5097082;27;45376;-60
2022/09/22 11:15:53;;;;;;;;;1.67;1.67;;;;;20.70;32.08;101435.56;5097342;27;45384;-57
2022/09/22 11:18:41;;;;;;;;;2.00;2.00;;;;;20.79;34.04;101432.09;5097467;27;45196;-58
2022/09/22 11:21:16;;;;;;;;;2.00;1.00;;;;;20.86;34.27;101422.47;5098241;27;45352;-58
2022/09/22 11:24:28;;;;;;;;;3.33;3.00;;;;;20.97;33.62;101418.84;5097371;27;45402;-58
2022/09/22 11:26:58;;;;;;;;;2.00;2.00;;;;;20.99;33.00;101412.31;5097611;27;45914;-59
2022/09/22 11:29:29;;;;;;;;;3.00;3.00;;;;;21.02;32.41;101408.47;5097760;27;45466;-57
2022/09/22 11:32:03;;;;;;;;;3.33;3.33;;;;;21.12;33.21;101412.97;5096684;27;45219;-56
2022/09/22 11:34:59;;;;;;;;;3.00;3.00;;;;;21.14;33.49;101402.00;5097673;27;45233;-59
2022/09/22 11:37:57;;;;;;;;;5.00;5.00;;;;;21.21;33.18;101406.72;5097336;27;46349;-58
2022/09/22 11:40:38;;;;;;;;;5.00;5.00;;;;;21.35;33.31;101407.38;5097131;27;45357;-58
2022/09/22 11:43:21;;;;;;;;;5.00;4.00;;;;;21.47;33.66;101406.28;5097285;27;45225;-57
2022/09/22 11:45:59;;;;;;;;;5.00;5.00;;;;;21.63;32.90;101409.38;5097402;27;45502;-58
2022/09/22 11:48:33;;;;;;;;;4.00;4.00;;;;;21.73;33.34;101403.97;5096710;27;45637;-58